Airfield :
LOGIN :

Register | Disclaimer

   EN    FR    IT 

 










Legend :    VFR   Marginal VFR   IFR   Intensive IFR   Very Intensive IFR
Visi :
Ceiling :
>= 8 km
>= 3000ft
5 to 8 km
1000 to 3000 ft
1500m to 5 km
500 to 1000 ft
800 to 1500m
200 to 500 ft
< 800m
< 200 ft
Symbols :   Thunderstorms  Fog  Heavy snow  Heavy precipitations  Wind > 20 kt
SIGMETs :     Misc.  Thunderstorms  Icing  Turbulence  Mountain Waves  Volcanic Ashes






- Airport Elevation : 219 ft
- IATA code : DNR


LFRD - Dinard

CURRENT METAR :
  • 011300Z AUTO 01006KT CAVOK 10/07 Q1026 TEMPO BKN010

EXPIRED METARs :
  • 011230Z AUTO 36006KT CAVOK 09/07 Q1027 TEMPO BKN010
  • 011200Z AUTO 01005KT CAVOK 10/07 Q1027 TEMPO BKN010
  • 011130Z AUTO 08003KT 040V120 9999 FEW024 BKN058 08/06 Q1027 TEMPO BKN010
  • 011100Z AUTO 07003KT 9999 SCT023 08/06 Q1028 TEMPO BKN010
  • 011030Z AUTO 08004KT 9999 FEW047 08/06 Q1028 TEMPO BKN010

TAF TAF LFRD
Valid from the 01 at 12:00 until the 02 at 12:00 UTC


011100Z 0112/0212 VRB05KT 8000 BKN020
PROB40
TEMPO 0112/0118 BKN010
PROB40
TEMPO 0122/0204 0500 FG VV///
PROB40
TEMPO 0200/0210 3000 BR BKN004
ATIS : +33 2 99 16 81 50



MET'MAP, your aeronautical weather chart ! - Copyright ORBIFLY December 2007 - Disclaimer

ORBIFLY MET'MAP TEAM :

Programming & Development : Alexandra Zaïnal
Original concept : Baudouin d'Aumeries
Technical & hardware support : Manuel Goepfert
Assistance : Marc-Olivier Méhu




SOURCES & CREDITS :

   NOAA